F/V Seeker — WTE5329 — position and weather

sailwx.info

Track history (hours):
 
Tides and Currents Weather Stations Pressure Air Temp Water Temp Dewpoint Dewpoint Depression Visibility Wind Speed Wind Dir Waves Ship Positions

F/V Seeker

Owner: COOPER, LAWRENCE E, NEWPORT, OR. More information available from US FCC via Universal Licensing System and Coast Guard Vessel Documentation Center.

Last reported at 2017-Oct-17 02:00 UTC. Time now 2017-Oct-17 02:18 UTC.
Position N 46°12' W 123°46'.

Length 30 m; draft 4 m.

Type: Fishing. MMSI: 368578000.

Date/timePositionNaut miles runAvg speedWind from/ knotsBaromVisibWave heightAir tempDewpointWater temp
2017-Oct-17 02:00N 46°12' W 123°46'0 0.0
2017-Oct-17 01:30N 46°12' W 123°46'0 0.0
2017-Oct-17 01:00N 46°12' W 123°46'0 0.0
2017-Oct-17 00:30N 46°12' W 123°46'0 0.0
2017-Oct-17 00:00N 46°12' W 123°46'0 0.0
2017-Oct-16 23:30N 46°12' W 123°46'0 0.0
2017-Oct-16 23:00N 46°12' W 123°46'0 0.0
2017-Oct-16 22:31N 46°12' W 123°46'0 0.0
2017-Oct-16 22:00N 46°12' W 123°46'0 0.8
2017-Oct-16 21:31N 46°12' W 123°45'4 7.1
2017-Oct-16 21:01N 46°12' W 123°50'4 8.0
2017-Oct-16 20:31N 46°12' W 123°56'4 8.3
2017-Oct-16 20:00N 46°15' W 124°01'4 7.9
2017-Oct-16 19:30N 46°14' W 124°06'4 8.7
2017-Oct-16 19:00N 46°09' W 124°06'5 9.7
2017-Oct-16 18:30N 46°04' W 124°07'5 9.5
2017-Oct-16 18:00N 45°60' W 124°07'5 9.3
2017-Oct-16 17:30N 45°55' W 124°08'5 9.0
2017-Oct-16 17:00N 45°50' W 124°08'4 8.9
2017-Oct-16 16:30N 45°46' W 124°08'5 9.0
2017-Oct-16 16:00N 45°42' W 124°09'4 8.9
2017-Oct-16 15:30N 45°37' W 124°09'5 9.1
2017-Oct-16 15:00N 45°33' W 124°09'9 9.4
2017-Oct-16 14:00N 45°23' W 124°10'5 9.4
2017-Oct-16 13:30N 45°19' W 124°11'5 9.4
2017-Oct-16 13:00N 45°14' W 124°11'5 9.4
2017-Oct-16 12:30N 45°09' W 124°11'5 9.5
2017-Oct-16 12:00N 45°04' W 124°12'5 9.3
2017-Oct-16 11:27N 44°59' W 124°12'7 9.1
2017-Oct-16 10:37N 44°52' W 124°13'11 9.0
2017-Oct-16 09:22N 44°41' W 124°14'4 9.2
2017-Oct-16 08:58N 44°37' W 124°17'6 9.1
2017-Oct-16 08:20N 44°32' W 124°20'6 8.9
2017-Oct-16 07:43N 44°27' W 124°23'39 8.1
2017-Oct-16 02:54N 43°52' W 124°46'2 1.8
2017-Oct-16 01:54N 43°53' W 124°49'1 3.1
2017-Oct-16 01:30N 43°53' W 124°50'6 1.7
2017-Oct-15 21:58N 43°52' W 124°42'3 6.9
2017-Oct-15 21:30N 43°52' W 124°46'1 1.8
2017-Oct-15 21:00N 43°52' W 124°48'64 6.7
2017-Oct-15 11:31N 44°56' W 124°51'1 9.9
2017-Oct-15 11:27N 44°57' W 124°51'410.0
2017-Oct-15 11:00N 45°01' W 124°51'510.2
2017-Oct-15 10:30N 45°06' W 124°51'510.2
2017-Oct-15 10:00N 45°11' W 124°51'510.1
2017-Oct-15 09:30N 45°16' W 124°51'510.1
2017-Oct-15 09:00N 45°21' W 124°51'510.2
2017-Oct-15 08:30N 45°26' W 124°51'510.2
2017-Oct-15 08:01N 45°31' W 124°51'510.0
2017-Oct-15 07:30N 45°36' W 124°51'5 9.8
2017-Oct-15 07:00N 45°41' W 124°51'510.0
2017-Oct-15 06:30N 45°46' W 124°51'5 9.8
2017-Oct-15 06:00N 45°51' W 124°51'5 9.8
2017-Oct-15 05:30N 45°56' W 124°51'5 9.7
2017-Oct-15 05:00N 46°01' W 124°51'5 9.7
2017-Oct-15 04:30N 46°06' W 124°51'510.0
2017-Oct-15 04:00N 46°11' W 124°51'510.1
2017-Oct-15 03:30N 46°16' W 124°51'510.1
2017-Oct-15 03:00N 46°21' W 124°51'510.1
2017-Oct-15 02:30N 46°26' W 124°51'810.0
2017-Oct-15 01:41N 46°34' W 124°51'3 9.9
2017-Oct-15 01:20N 46°38' W 124°51'3 9.9
2017-Oct-15 01:00N 46°41' W 124°50'5 9.5
2017-Oct-15 00:30N 46°46' W 124°50'5 9.6
2017-Oct-15 00:00N 46°50' W 124°51'5 9.5
2017-Oct-14 23:30N 46°55' W 124°52'6 9.1
2017-Oct-14 22:51N 47°01' W 124°52'5 8.9
2017-Oct-14 22:14N 47°07' W 124°52'14 2.3
2017-Oct-14 16:03N 46°60' W 124°34'010.3
2017-Oct-14 16:00N 46°60' W 124°33'917.1
2017-Oct-14 15:30N 46°52' W 124°29'2 3.4
2017-Oct-14 15:00N 46°50' W 124°28'510.1
2017-Oct-14 14:30N 46°45' W 124°25'510.1
2017-Oct-14 14:00N 46°41' W 124°22'510.3
2017-Oct-14 13:30N 46°36' W 124°20'510.3
2017-Oct-14 13:00N 46°31' W 124°17'510.2
2017-Oct-14 12:30N 46°26' W 124°14'510.4
2017-Oct-14 12:00N 46°22' W 124°11'511.0
2017-Oct-14 11:30N 46°16' W 124°08'510.2
2017-Oct-14 11:00N 46°15' W 124°01'612.6
2017-Oct-14 10:30N 46°12' W 123°54'611.4
2017-Oct-14 10:00N 46°12' W 123°45'0 0.6
2017-Oct-14 09:30N 46°12' W 123°46'0 0.0
2017-Oct-14 09:00N 46°12' W 123°46'0 0.0
2017-Oct-14 08:30N 46°12' W 123°46'0 0.0
2017-Oct-14 08:00N 46°12' W 123°46'0 0.0
2017-Oct-14 07:30N 46°12' W 123°46'0 0.0
2017-Oct-14 07:01N 46°12' W 123°46'0 0.0
2017-Oct-14 06:30N 46°12' W 123°46'0 0.0
2017-Oct-14 06:00N 46°12' W 123°46'0 0.0
2017-Oct-14 05:30N 46°12' W 123°46'0 0.0
2017-Oct-14 05:00N 46°12' W 123°46'0 0.0
2017-Oct-14 04:27N 46°12' W 123°46'0 0.0
2017-Oct-14 04:00N 46°12' W 123°46'0 0.0
2017-Oct-14 03:21N 46°12' W 123°46'0 0.0
2017-Oct-14 03:01N 46°12' W 123°46'0 0.0
2017-Oct-14 02:30N 46°12' W 123°46'0 0.0
2017-Oct-14 02:00N 46°12' W 123°46'0 0.0
2017-Oct-14 01:30N 46°12' W 123°46'0 0.0
2017-Oct-14 01:00N 46°12' W 123°46'0 0.0
2017-Oct-14 00:31N 46°12' W 123°46'0 0.0
2017-Oct-14 00:00N 46°12' W 123°46'0 0.0
2017-Oct-13 23:31N 46°12' W 123°46'0 0.0
2017-Oct-13 23:00N 46°12' W 123°46'0 0.0
2017-Oct-13 22:30N 46°12' W 123°46'0 0.0
2017-Oct-13 22:00N 46°12' W 123°46'0 0.0
2017-Oct-13 21:15N 46°12' W 123°46'0 0.0
2017-Oct-13 21:00N 46°12' W 123°46'0 0.0
2017-Oct-13 20:30N 46°12' W 123°46'0 0.0
2017-Oct-13 20:00N 46°12' W 123°46'0 0.0
2017-Oct-13 19:30N 46°12' W 123°46'0 0.0
2017-Oct-13 19:01N 46°12' W 123°46'0 0.0
2017-Oct-13 18:21N 46°12' W 123°46'0 0.0
2017-Oct-13 18:00N 46°12' W 123°46'0 0.0
2017-Oct-13 17:14N 46°12' W 123°46'0 0.0
2017-Oct-13 17:00N 46°12' W 123°46'0 0.0
2017-Oct-13 16:30N 46°12' W 123°46'0 0.0
2017-Oct-13 16:00N 46°12' W 123°46'0 0.0
2017-Oct-13 15:30N 46°12' W 123°46'0 0.0
2017-Oct-13 15:00N 46°12' W 123°46'0 0.0
2017-Oct-13 14:30N 46°12' W 123°46'0 0.0
2017-Oct-13 13:51N 46°12' W 123°46'1 2.7
2017-Oct-13 13:31N 46°13' W 123°46'7 9.9
2017-Oct-13 12:50N 46°12' W 123°55'310.5
2017-Oct-13 12:31N 46°14' W 123°59'5 8.4
2017-Oct-13 11:56N 46°14' W 124°06'2 4.7
2017-Oct-13 11:30N 46°12' W 124°06'4 7.6
2017-Oct-13 11:00N 46°08' W 124°07'4 7.4
2017-Oct-13 10:30N 46°04' W 124°07'4 7.7
2017-Oct-13 10:00N 46°01' W 124°07'6 8.1
2017-Oct-13 09:15N 45°55' W 124°08'2 8.1
2017-Oct-13 09:00N 45°53' W 124°08'713.5
2017-Oct-13 08:30N 45°46' W 124°08'3 5.1
2017-Oct-13 07:52N 45°43' W 124°09'3 8.7
2017-Oct-13 07:30N 45°39' W 124°09'4 8.5
2017-Oct-13 06:59N 45°35' W 124°09'4 8.8
2017-Oct-13 06:30N 45°31' W 124°10'5 9.2
2017-Oct-13 05:55N 45°25' W 124°10'4 9.4
2017-Oct-13 05:30N 45°22' W 124°11'5 9.5
2017-Oct-13 05:00N 45°17' W 124°11'5 9.5
2017-Oct-13 04:30N 45°12' W 124°12'6 0.2
2017-Oct-11 23:14N 45°14' W 124°20'310.4
2017-Oct-11 22:58N 45°16' W 124°23'6 9.6
2017-Oct-11 22:20N 45°22' W 124°23'410.6
2017-Oct-11 21:58N 45°26' W 124°26'4 9.6
2017-Oct-11 21:30N 45°30' W 124°28'5 9.1
2017-Oct-11 21:00N 45°34' W 124°30'510.2
2017-Oct-11 20:30N 45°39' W 124°34'510.1
2017-Oct-11 20:00N 45°42' W 124°39'5 9.8
2017-Oct-11 19:30N 45°47' W 124°42'5 9.7
2017-Oct-11 19:00N 45°51' W 124°42'5 9.9
2017-Oct-11 18:30N 45°55' W 124°37'510.4
2017-Oct-11 18:00N 45°58' W 124°31'510.6
2017-Oct-11 17:30N 46°02' W 124°26'510.6
2017-Oct-11 17:00N 46°06' W 124°21'34 2.0
2017-Oct-11 00:00N 45°33' W 124°10'4 8.7
2017-Oct-10 23:30N 45°29' W 124°10'4 8.4
2017-Oct-10 23:00N 45°24' W 124°10'4 8.4
2017-Oct-10 22:30N 45°20' W 124°11'4 8.5
2017-Oct-10 22:00N 45°16' W 124°11'5 8.6
2017-Oct-10 21:27N 45°11' W 124°12'67 5.9
2017-Oct-10 10:02N 44°13' W 124°59'0 2.9
2017-Oct-10 10:00N 44°13' W 124°59'2 0.4
2017-Oct-10 05:47N 44°11' W 124°59'1 3.5
2017-Oct-10 05:30N 44°10' W 124°59'2 3.5
2017-Oct-10 04:50N 44°08' W 124°59'7 1.8
2017-Oct-10 01:08N 44°15' W 124°57'1 5.6
2017-Oct-10 01:00N 44°15' W 124°57'1 1.7
2017-Oct-10 00:17N 44°14' W 124°58'1 2.6
2017-Oct-09 23:59N 44°14' W 124°58'1 2.7
2017-Oct-09 23:27N 44°12' W 124°59'1 2.9
2017-Oct-09 23:00N 44°11' W 124°59'2 3.3
2017-Oct-09 22:30N 44°09' W 124°59'1 1.7
2017-Oct-09 22:00N 44°09' W 124°59'5 9.6
2017-Oct-09 21:30N 44°13' W 124°58'0 0.7
2017-Oct-09 21:01N 44°13' W 124°58'0 0.9
2017-Oct-09 20:30N 44°13' W 124°58'1 1.2
2017-Oct-09 20:00N 44°13' W 124°58'1 2.0
2017-Oct-09 19:30N 44°14' W 124°57'2 3.1
2017-Oct-09 19:00N 44°15' W 124°56'2 3.1
2017-Oct-09 18:30N 44°17' W 124°55'0 0.6
2017-Oct-09 18:00N 44°17' W 124°55'5 9.0
2017-Oct-09 17:30N 44°20' W 124°50'610.5
2017-Oct-09 16:55N 44°26' W 124°49'410.5
2017-Oct-09 16:30N 44°31' W 124°50'710.3
2017-Oct-09 15:50N 44°38' W 124°51'410.3
2017-Oct-09 15:30N 44°41' W 124°52'510.6
2017-Oct-09 14:59N 44°46' W 124°52'510.8
2017-Oct-09 14:30N 44°52' W 124°52'510.4
2017-Oct-09 14:00N 44°57' W 124°52'510.4
2017-Oct-09 13:30N 45°02' W 124°52'510.4
2017-Oct-09 13:00N 45°07' W 124°52'510.4
2017-Oct-09 12:30N 45°12' W 124°52'510.5
2017-Oct-09 12:00N 45°18' W 124°52'510.4
2017-Oct-09 11:30N 45°23' W 124°52'510.3
2017-Oct-09 10:59N 45°28' W 124°52'810.3
2017-Oct-09 10:13N 45°36' W 124°53'210.2
2017-Oct-09 10:00N 45°38' W 124°53'815.7
2017-Oct-09 09:30N 45°46' W 124°54'2 4.3
2017-Oct-09 09:00N 45°48' W 124°54'510.2
2017-Oct-09 08:30N 45°54' W 124°54'510.4
2017-Oct-09 08:00N 45°59' W 124°54'510.5
2017-Oct-09 07:30N 46°04' W 124°54'510.2
2017-Oct-09 07:00N 46°09' W 124°54'510.2
2017-Oct-09 06:30N 46°14' W 124°54'510.7
2017-Oct-09 06:01N 46°19' W 124°54'510.8
2017-Oct-09 05:30N 46°25' W 124°55'510.8
2017-Oct-09 05:00N 46°30' W 124°55'611.0
2017-Oct-09 04:30N 46°36' W 124°55'611.1
2017-Oct-09 04:00N 46°41' W 124°54'611.1
2017-Oct-09 03:31N 46°47' W 124°54'510.9
2017-Oct-09 03:00N 46°52' W 124°55'510.8
2017-Oct-09 02:30N 46°58' W 124°56'510.6
2017-Oct-09 02:00N 47°03' W 124°57'510.5
2017-Oct-09 01:31N 47°08' W 124°59'710.1
2017-Oct-09 00:49N 47°15' W 124°58'310.3
2017-Oct-09 00:30N 47°18' W 124°58'13 2.2
2017-Oct-08 18:37N 47°12' W 124°42'310.0
2017-Oct-08 18:21N 47°09' W 124°40'6 9.9
2017-Oct-08 17:43N 47°03' W 124°38'410.1
2017-Oct-08 17:22N 46°60' W 124°36'3 9.5
2017-Oct-08 17:00N 46°57' W 124°34'5 9.7
2017-Oct-08 16:30N 46°52' W 124°31'5 9.4
2017-Oct-08 16:00N 46°48' W 124°28'5 9.4
2017-Oct-08 15:30N 46°44' W 124°26'1013.8
2017-Oct-08 14:46N 46°34' W 124°21'0 0.2
2017-Oct-08 14:25N 46°34' W 124°21'4 9.7
2017-Oct-08 14:00N 46°30' W 124°19'5 9.6
2017-Oct-08 13:30N 46°26' W 124°17'5 9.4
2017-Oct-08 13:00N 46°21' W 124°14'4 9.0
2017-Oct-08 12:30N 46°17' W 124°12'4 7.8
2017-Oct-08 12:00N 46°15' W 124°07'4 8.6
2017-Oct-08 11:30N 46°15' W 124°01'511.0
2017-Oct-08 11:00N 46°12' W 123°55'510.0
2017-Oct-08 10:30N 46°12' W 123°48'1 2.9
2017-Oct-08 10:00N 46°12' W 123°46'0 0.0
2017-Oct-08 09:30N 46°12' W 123°46'0 0.0
2017-Oct-08 09:00N 46°12' W 123°46'0 0.0
2017-Oct-08 08:20N 46°12' W 123°46'0 0.0
2017-Oct-08 08:01N 46°12' W 123°46'0 0.0
2017-Oct-08 07:30N 46°12' W 123°46'0 0.0
2017-Oct-08 07:00N 46°12' W 123°46'0 0.0
2017-Oct-08 06:30N 46°12' W 123°46'0 0.0
2017-Oct-08 06:00N 46°12' W 123°46'0 0.0
2017-Oct-08 05:30N 46°12' W 123°46'0 0.0
2017-Oct-08 05:00N 46°12' W 123°46'0 0.0
2017-Oct-08 04:30N 46°12' W 123°46'0 0.0
2017-Oct-08 04:00N 46°12' W 123°46'0 0.0
2017-Oct-08 03:20N 46°12' W 123°46'0 0.0
2017-Oct-08 03:00N 46°12' W 123°46'0 0.0
2017-Oct-08 02:30N 46°12' W 123°46'0 0.0
2017-Oct-08 02:00N 46°12' W 123°46'0 0.0
2017-Oct-08 01:30N 46°12' W 123°46'0 0.0
2017-Oct-08 00:58N 46°12' W 123°46'0 0.0
2017-Oct-08 00:30N 46°12' W 123°46'0 0.0
2017-Oct-08 00:00N 46°12' W 123°46'0 0.0
2017-Oct-07 23:31N 46°12' W 123°46'0 0.0
2017-Oct-07 23:00N 46°12' W 123°46'0 0.6
2017-Oct-07 22:31N 46°12' W 123°45'3 6.9
2017-Oct-07 22:00N 46°12' W 123°50'0 0.0
2017-Oct-07 21:31N 46°12' W 123°50'0 0.0
2017-Oct-07 21:00N 46°12' W 123°50'0 0.0
2017-Oct-07 20:30N 46°12' W 123°50'2 3.9
2017-Oct-07 20:00N 46°12' W 123°48'4 8.3
2017-Oct-07 19:30N 46°12' W 123°54'612.4
2017-Oct-07 19:00N 46°15' W 124°01'5 9.1
2017-Oct-07 18:30N 46°12' W 124°06'5 9.9
2017-Oct-07 18:00N 46°07' W 124°06'5 9.9
2017-Oct-07 17:30N 46°02' W 124°07'11 9.8
2017-Oct-07 16:21N 45°51' W 124°08'4 9.5
2017-Oct-07 15:58N 45°47' W 124°08'4 9.5
2017-Oct-07 15:30N 45°43' W 124°09'5 9.4
2017-Oct-07 15:00N 45°38' W 124°09'5 9.3
2017-Oct-07 14:30N 45°34' W 124°10'5 9.4
2017-Oct-07 13:57N 45°29' W 124°10'4 9.1
2017-Oct-07 13:30N 45°24' W 124°11'4 8.8
2017-Oct-07 13:00N 45°20' W 124°11'4 8.7
2017-Oct-07 12:30N 45°16' W 124°11'4 8.4
2017-Oct-07 12:00N 45°11' W 124°12'4 8.5
2017-Oct-07 11:30N 45°07' W 124°12'4 8.4
2017-Oct-07 11:00N 45°03' W 124°12'32 9.2
2017-Oct-07 07:30N 44°31' W 124°20'19 9.8
2017-Oct-07 05:34N 44°16' W 124°37'210.1
2017-Oct-07 05:20N 44°14' W 124°39'5 9.7
2017-Oct-07 04:50N 44°10' W 124°43'4 8.6
2017-Oct-07 04:22N 44°07' W 124°46'3 9.6
2017-Oct-07 04:00N 44°04' W 124°49'5 9.9
2017-Oct-07 03:30N 44°01' W 124°53'4 8.3
2017-Oct-07 03:00N 43°57' W 124°56'1 2.0
2017-Oct-07 02:30N 43°56' W 124°57'  
Track history (hours):
 
Tides and Currents Weather Stations Pressure Air Temp Water Temp Dewpoint Dewpoint Depression Visibility Wind Speed Wind Dir Waves Ship Positions

F/V Seeker

Owner: COOPER, LAWRENCE E, NEWPORT, OR. More information available from US FCC via Universal Licensing System and Coast Guard Vessel Documentation Center.

Last reported at 2017-Oct-17 02:00 UTC. Time now 2017-Oct-17 02:18 UTC.
Position N 46°12' W 123°46'.

Length 30 m; draft 4 m.

Type: Fishing. MMSI: 368578000.

Date/timePositionNaut miles runAvg speedWind from/ knotsBaromVisibWave heightAir tempDewpointWater temp
2017-Oct-17 02:00N 46°12' W 123°46'0 0.0
2017-Oct-17 01:30N 46°12' W 123°46'0 0.0
2017-Oct-17 01:00N 46°12' W 123°46'0 0.0
2017-Oct-17 00:30N 46°12' W 123°46'0 0.0
2017-Oct-17 00:00N 46°12' W 123°46'0 0.0
2017-Oct-16 23:30N 46°12' W 123°46'0 0.0
2017-Oct-16 23:00N 46°12' W 123°46'0 0.0
2017-Oct-16 22:31N 46°12' W 123°46'0 0.0
2017-Oct-16 22:00N 46°12' W 123°46'0 0.8
2017-Oct-16 21:31N 46°12' W 123°45'4 7.1
2017-Oct-16 21:01N 46°12' W 123°50'4 8.0
2017-Oct-16 20:31N 46°12' W 123°56'4 8.3
2017-Oct-16 20:00N 46°15' W 124°01'4 7.9
2017-Oct-16 19:30N 46°14' W 124°06'4 8.7
2017-Oct-16 19:00N 46°09' W 124°06'5 9.7
2017-Oct-16 18:30N 46°04' W 124°07'5 9.5
2017-Oct-16 18:00N 45°60' W 124°07'5 9.3
2017-Oct-16 17:30N 45°55' W 124°08'5 9.0
2017-Oct-16 17:00N 45°50' W 124°08'4 8.9
2017-Oct-16 16:30N 45°46' W 124°08'5 9.0
2017-Oct-16 16:00N 45°42' W 124°09'4 8.9
2017-Oct-16 15:30N 45°37' W 124°09'5 9.1
2017-Oct-16 15:00N 45°33' W 124°09'9 9.4
2017-Oct-16 14:00N 45°23' W 124°10'5 9.4
2017-Oct-16 13:30N 45°19' W 124°11'5 9.4
2017-Oct-16 13:00N 45°14' W 124°11'5 9.4
2017-Oct-16 12:30N 45°09' W 124°11'5 9.5
2017-Oct-16 12:00N 45°04' W 124°12'5 9.3
2017-Oct-16 11:27N 44°59' W 124°12'7 9.1
2017-Oct-16 10:37N 44°52' W 124°13'11 9.0
2017-Oct-16 09:22N 44°41' W 124°14'4 9.2
2017-Oct-16 08:58N 44°37' W 124°17'6 9.1
2017-Oct-16 08:20N 44°32' W 124°20'6 8.9
2017-Oct-16 07:43N 44°27' W 124°23'39 8.1
2017-Oct-16 02:54N 43°52' W 124°46'2 1.8
2017-Oct-16 01:54N 43°53' W 124°49'1 3.1
2017-Oct-16 01:30N 43°53' W 124°50'6 1.7
2017-Oct-15 21:58N 43°52' W 124°42'3 6.9
2017-Oct-15 21:30N 43°52' W 124°46'1 1.8
2017-Oct-15 21:00N 43°52' W 124°48'64 6.7
2017-Oct-15 11:31N 44°56' W 124°51'1 9.9
2017-Oct-15 11:27N 44°57' W 124°51'410.0
2017-Oct-15 11:00N 45°01' W 124°51'510.2
2017-Oct-15 10:30N 45°06' W 124°51'510.2
2017-Oct-15 10:00N 45°11' W 124°51'510.1
2017-Oct-15 09:30N 45°16' W 124°51'510.1
2017-Oct-15 09:00N 45°21' W 124°51'510.2
2017-Oct-15 08:30N 45°26' W 124°51'510.2
2017-Oct-15 08:01N 45°31' W 124°51'510.0
2017-Oct-15 07:30N 45°36' W 124°51'5 9.8
2017-Oct-15 07:00N 45°41' W 124°51'510.0
2017-Oct-15 06:30N 45°46' W 124°51'5 9.8
2017-Oct-15 06:00N 45°51' W 124°51'5 9.8
2017-Oct-15 05:30N 45°56' W 124°51'5 9.7
2017-Oct-15 05:00N 46°01' W 124°51'5 9.7
2017-Oct-15 04:30N 46°06' W 124°51'510.0
2017-Oct-15 04:00N 46°11' W 124°51'510.1
2017-Oct-15 03:30N 46°16' W 124°51'510.1
2017-Oct-15 03:00N 46°21' W 124°51'510.1
2017-Oct-15 02:30N 46°26' W 124°51'810.0
2017-Oct-15 01:41N 46°34' W 124°51'3 9.9
2017-Oct-15 01:20N 46°38' W 124°51'3 9.9
2017-Oct-15 01:00N 46°41' W 124°50'5 9.5
2017-Oct-15 00:30N 46°46' W 124°50'5 9.6
2017-Oct-15 00:00N 46°50' W 124°51'5 9.5
2017-Oct-14 23:30N 46°55' W 124°52'6 9.1
2017-Oct-14 22:51N 47°01' W 124°52'5 8.9
2017-Oct-14 22:14N 47°07' W 124°52'14 2.3
2017-Oct-14 16:03N 46°60' W 124°34'010.3
2017-Oct-14 16:00N 46°60' W 124°33'917.1
2017-Oct-14 15:30N 46°52' W 124°29'2 3.4
2017-Oct-14 15:00N 46°50' W 124°28'510.1
2017-Oct-14 14:30N 46°45' W 124°25'510.1
2017-Oct-14 14:00N 46°41' W 124°22'510.3
2017-Oct-14 13:30N 46°36' W 124°20'510.3
2017-Oct-14 13:00N 46°31' W 124°17'510.2
2017-Oct-14 12:30N 46°26' W 124°14'510.4
2017-Oct-14 12:00N 46°22' W 124°11'511.0
2017-Oct-14 11:30N 46°16' W 124°08'510.2
2017-Oct-14 11:00N 46°15' W 124°01'612.6
2017-Oct-14 10:30N 46°12' W 123°54'611.4
2017-Oct-14 10:00N 46°12' W 123°45'0 0.6
2017-Oct-14 09:30N 46°12' W 123°46'0 0.0
2017-Oct-14 09:00N 46°12' W 123°46'0 0.0
2017-Oct-14 08:30N 46°12' W 123°46'0 0.0
2017-Oct-14 08:00N 46°12' W 123°46'0 0.0
2017-Oct-14 07:30N 46°12' W 123°46'0 0.0
2017-Oct-14 07:01N 46°12' W 123°46'0 0.0
2017-Oct-14 06:30N 46°12' W 123°46'0 0.0
2017-Oct-14 06:00N 46°12' W 123°46'0 0.0
2017-Oct-14 05:30N 46°12' W 123°46'0 0.0
2017-Oct-14 05:00N 46°12' W 123°46'0 0.0
2017-Oct-14 04:27N 46°12' W 123°46'0 0.0
2017-Oct-14 04:00N 46°12' W 123°46'0 0.0
2017-Oct-14 03:21N 46°12' W 123°46'0 0.0
2017-Oct-14 03:01N 46°12' W 123°46'0 0.0
2017-Oct-14 02:30N 46°12' W 123°46'0 0.0
2017-Oct-14 02:00N 46°12' W 123°46'0 0.0
2017-Oct-14 01:30N 46°12' W 123°46'0 0.0
2017-Oct-14 01:00N 46°12' W 123°46'0 0.0
2017-Oct-14 00:31N 46°12' W 123°46'0 0.0
2017-Oct-14 00:00N 46°12' W 123°46'0 0.0
2017-Oct-13 23:31N 46°12' W 123°46'0 0.0
2017-Oct-13 23:00N 46°12' W 123°46'0 0.0
2017-Oct-13 22:30N 46°12' W 123°46'0 0.0
2017-Oct-13 22:00N 46°12' W 123°46'0 0.0
2017-Oct-13 21:15N 46°12' W 123°46'0 0.0
2017-Oct-13 21:00N 46°12' W 123°46'0 0.0
2017-Oct-13 20:30N 46°12' W 123°46'0 0.0
2017-Oct-13 20:00N 46°12' W 123°46'0 0.0
2017-Oct-13 19:30N 46°12' W 123°46'0 0.0
2017-Oct-13 19:01N 46°12' W 123°46'0 0.0
2017-Oct-13 18:21N 46°12' W 123°46'0 0.0
2017-Oct-13 18:00N 46°12' W 123°46'0 0.0
2017-Oct-13 17:14N 46°12' W 123°46'0 0.0
2017-Oct-13 17:00N 46°12' W 123°46'0 0.0
2017-Oct-13 16:30N 46°12' W 123°46'0 0.0
2017-Oct-13 16:00N 46°12' W 123°46'0 0.0
2017-Oct-13 15:30N 46°12' W 123°46'0 0.0
2017-Oct-13 15:00N 46°12' W 123°46'0 0.0
2017-Oct-13 14:30N 46°12' W 123°46'0 0.0
2017-Oct-13 13:51N 46°12' W 123°46'1 2.7
2017-Oct-13 13:31N 46°13' W 123°46'7 9.9
2017-Oct-13 12:50N 46°12' W 123°55'310.5
2017-Oct-13 12:31N 46°14' W 123°59'5 8.4
2017-Oct-13 11:56N 46°14' W 124°06'2 4.7
2017-Oct-13 11:30N 46°12' W 124°06'4 7.6
2017-Oct-13 11:00N 46°08' W 124°07'4 7.4
2017-Oct-13 10:30N 46°04' W 124°07'4 7.7
2017-Oct-13 10:00N 46°01' W 124°07'6 8.1
2017-Oct-13 09:15N 45°55' W 124°08'2 8.1
2017-Oct-13 09:00N 45°53' W 124°08'713.5
2017-Oct-13 08:30N 45°46' W 124°08'3 5.1
2017-Oct-13 07:52N 45°43' W 124°09'3 8.7
2017-Oct-13 07:30N 45°39' W 124°09'4 8.5
2017-Oct-13 06:59N 45°35' W 124°09'4 8.8
2017-Oct-13 06:30N 45°31' W 124°10'5 9.2
2017-Oct-13 05:55N 45°25' W 124°10'4 9.4
2017-Oct-13 05:30N 45°22' W 124°11'5 9.5
2017-Oct-13 05:00N 45°17' W 124°11'5 9.5
2017-Oct-13 04:30N 45°12' W 124°12'6 0.2
2017-Oct-11 23:14N 45°14' W 124°20'310.4
2017-Oct-11 22:58N 45°16' W 124°23'6 9.6
2017-Oct-11 22:20N 45°22' W 124°23'410.6
2017-Oct-11 21:58N 45°26' W 124°26'4 9.6
2017-Oct-11 21:30N 45°30' W 124°28'5 9.1
2017-Oct-11 21:00N 45°34' W 124°30'510.2
2017-Oct-11 20:30N 45°39' W 124°34'510.1
2017-Oct-11 20:00N 45°42' W 124°39'5 9.8
2017-Oct-11 19:30N 45°47' W 124°42'5 9.7
2017-Oct-11 19:00N 45°51' W 124°42'5 9.9
2017-Oct-11 18:30N 45°55' W 124°37'510.4
2017-Oct-11 18:00N 45°58' W 124°31'510.6
2017-Oct-11 17:30N 46°02' W 124°26'510.6
2017-Oct-11 17:00N 46°06' W 124°21'34 2.0
2017-Oct-11 00:00N 45°33' W 124°10'4 8.7
2017-Oct-10 23:30N 45°29' W 124°10'4 8.4
2017-Oct-10 23:00N 45°24' W 124°10'4 8.4
2017-Oct-10 22:30N 45°20' W 124°11'4 8.5
2017-Oct-10 22:00N 45°16' W 124°11'5 8.6
2017-Oct-10 21:27N 45°11' W 124°12'67 5.9
2017-Oct-10 10:02N 44°13' W 124°59'0 2.9
2017-Oct-10 10:00N 44°13' W 124°59'2 0.4
2017-Oct-10 05:47N 44°11' W 124°59'1 3.5
2017-Oct-10 05:30N 44°10' W 124°59'2 3.5
2017-Oct-10 04:50N 44°08' W 124°59'7 1.8
2017-Oct-10 01:08N 44°15' W 124°57'1 5.6
2017-Oct-10 01:00N 44°15' W 124°57'1 1.7
2017-Oct-10 00:17N 44°14' W 124°58'1 2.6
2017-Oct-09 23:59N 44°14' W 124°58'1 2.7
2017-Oct-09 23:27N 44°12' W 124°59'1 2.9
2017-Oct-09 23:00N 44°11' W 124°59'2 3.3
2017-Oct-09 22:30N 44°09' W 124°59'1 1.7
2017-Oct-09 22:00N 44°09' W 124°59'5 9.6
2017-Oct-09 21:30N 44°13' W 124°58'0 0.7
2017-Oct-09 21:01N 44°13' W 124°58'0 0.9
2017-Oct-09 20:30N 44°13' W 124°58'1 1.2
2017-Oct-09 20:00N 44°13' W 124°58'1 2.0
2017-Oct-09 19:30N 44°14' W 124°57'2 3.1
2017-Oct-09 19:00N 44°15' W 124°56'2 3.1
2017-Oct-09 18:30N 44°17' W 124°55'0 0.6
2017-Oct-09 18:00N 44°17' W 124°55'5 9.0
2017-Oct-09 17:30N 44°20' W 124°50'610.5
2017-Oct-09 16:55N 44°26' W 124°49'410.5
2017-Oct-09 16:30N 44°31' W 124°50'710.3
2017-Oct-09 15:50N 44°38' W 124°51'410.3
2017-Oct-09 15:30N 44°41' W 124°52'510.6
2017-Oct-09 14:59N 44°46' W 124°52'510.8
2017-Oct-09 14:30N 44°52' W 124°52'510.4
2017-Oct-09 14:00N 44°57' W 124°52'510.4
2017-Oct-09 13:30N 45°02' W 124°52'510.4
2017-Oct-09 13:00N 45°07' W 124°52'510.4
2017-Oct-09 12:30N 45°12' W 124°52'510.5
2017-Oct-09 12:00N 45°18' W 124°52'510.4
2017-Oct-09 11:30N 45°23' W 124°52'510.3
2017-Oct-09 10:59N 45°28' W 124°52'810.3
2017-Oct-09 10:13N 45°36' W 124°53'210.2
2017-Oct-09 10:00N 45°38' W 124°53'815.7
2017-Oct-09 09:30N 45°46' W 124°54'2 4.3
2017-Oct-09 09:00N 45°48' W 124°54'510.2
2017-Oct-09 08:30N 45°54' W 124°54'510.4
2017-Oct-09 08:00N 45°59' W 124°54'510.5
2017-Oct-09 07:30N 46°04' W 124°54'510.2
2017-Oct-09 07:00N 46°09' W 124°54'510.2
2017-Oct-09 06:30N 46°14' W 124°54'510.7
2017-Oct-09 06:01N 46°19' W 124°54'510.8
2017-Oct-09 05:30N 46°25' W 124°55'510.8
2017-Oct-09 05:00N 46°30' W 124°55'611.0
2017-Oct-09 04:30N 46°36' W 124°55'611.1
2017-Oct-09 04:00N 46°41' W 124°54'611.1
2017-Oct-09 03:31N 46°47' W 124°54'510.9
2017-Oct-09 03:00N 46°52' W 124°55'510.8
2017-Oct-09 02:30N 46°58' W 124°56'510.6
2017-Oct-09 02:00N 47°03' W 124°57'510.5
2017-Oct-09 01:31N 47°08' W 124°59'710.1
2017-Oct-09 00:49N 47°15' W 124°58'310.3
2017-Oct-09 00:30N 47°18' W 124°58'13 2.2
2017-Oct-08 18:37N 47°12' W 124°42'310.0
2017-Oct-08 18:21N 47°09' W 124°40'6 9.9
2017-Oct-08 17:43N 47°03' W 124°38'410.1
2017-Oct-08 17:22N 46°60' W 124°36'3 9.5
2017-Oct-08 17:00N 46°57' W 124°34'5 9.7
2017-Oct-08 16:30N 46°52' W 124°31'5 9.4
2017-Oct-08 16:00N 46°48' W 124°28'5 9.4
2017-Oct-08 15:30N 46°44' W 124°26'1013.8
2017-Oct-08 14:46N 46°34' W 124°21'0 0.2
2017-Oct-08 14:25N 46°34' W 124°21'4 9.7
2017-Oct-08 14:00N 46°30' W 124°19'5 9.6
2017-Oct-08 13:30N 46°26' W 124°17'5 9.4
2017-Oct-08 13:00N 46°21' W 124°14'4 9.0
2017-Oct-08 12:30N 46°17' W 124°12'4 7.8
2017-Oct-08 12:00N 46°15' W 124°07'4 8.6
2017-Oct-08 11:30N 46°15' W 124°01'511.0
2017-Oct-08 11:00N 46°12' W 123°55'510.0
2017-Oct-08 10:30N 46°12' W 123°48'1 2.9
2017-Oct-08 10:00N 46°12' W 123°46'0 0.0
2017-Oct-08 09:30N 46°12' W 123°46'0 0.0
2017-Oct-08 09:00N 46°12' W 123°46'0 0.0
2017-Oct-08 08:20N 46°12' W 123°46'0 0.0
2017-Oct-08 08:01N 46°12' W 123°46'0 0.0
2017-Oct-08 07:30N 46°12' W 123°46'0 0.0
2017-Oct-08 07:00N 46°12' W 123°46'0 0.0
2017-Oct-08 06:30N 46°12' W 123°46'0 0.0
2017-Oct-08 06:00N 46°12' W 123°46'0 0.0
2017-Oct-08 05:30N 46°12' W 123°46'0 0.0
2017-Oct-08 05:00N 46°12' W 123°46'0 0.0
2017-Oct-08 04:30N 46°12' W 123°46'0 0.0
2017-Oct-08 04:00N 46°12' W 123°46'0 0.0
2017-Oct-08 03:20N 46°12' W 123°46'0 0.0
2017-Oct-08 03:00N 46°12' W 123°46'0 0.0
2017-Oct-08 02:30N 46°12' W 123°46'0 0.0
2017-Oct-08 02:00N 46°12' W 123°46'0 0.0
2017-Oct-08 01:30N 46°12' W 123°46'0 0.0
2017-Oct-08 00:58N 46°12' W 123°46'0 0.0
2017-Oct-08 00:30N 46°12' W 123°46'0 0.0
2017-Oct-08 00:00N 46°12' W 123°46'0 0.0
2017-Oct-07 23:31N 46°12' W 123°46'0 0.0
2017-Oct-07 23:00N 46°12' W 123°46'0 0.6
2017-Oct-07 22:31N 46°12' W 123°45'3 6.9
2017-Oct-07 22:00N 46°12' W 123°50'0 0.0
2017-Oct-07 21:31N 46°12' W 123°50'0 0.0
2017-Oct-07 21:00N 46°12' W 123°50'0 0.0
2017-Oct-07 20:30N 46°12' W 123°50'2 3.9
2017-Oct-07 20:00N 46°12' W 123°48'4 8.3
2017-Oct-07 19:30N 46°12' W 123°54'612.4
2017-Oct-07 19:00N 46°15' W 124°01'5 9.1
2017-Oct-07 18:30N 46°12' W 124°06'5 9.9
2017-Oct-07 18:00N 46°07' W 124°06'5 9.9
2017-Oct-07 17:30N 46°02' W 124°07'11 9.8
2017-Oct-07 16:21N 45°51' W 124°08'4 9.5
2017-Oct-07 15:58N 45°47' W 124°08'4 9.5
2017-Oct-07 15:30N 45°43' W 124°09'5 9.4
2017-Oct-07 15:00N 45°38' W 124°09'5 9.3
2017-Oct-07 14:30N 45°34' W 124°10'5 9.4
2017-Oct-07 13:57N 45°29' W 124°10'4 9.1
2017-Oct-07 13:30N 45°24' W 124°11'4 8.8
2017-Oct-07 13:00N 45°20' W 124°11'4 8.7
2017-Oct-07 12:30N 45°16' W 124°11'4 8.4
2017-Oct-07 12:00N 45°11' W 124°12'4 8.5
2017-Oct-07 11:30N 45°07' W 124°12'4 8.4
2017-Oct-07 11:00N 45°03' W 124°12'32 9.2
2017-Oct-07 07:30N 44°31' W 124°20'19 9.8
2017-Oct-07 05:34N 44°16' W 124°37'210.1
2017-Oct-07 05:20N 44°14' W 124°39'5 9.7
2017-Oct-07 04:50N 44°10' W 124°43'4 8.6
2017-Oct-07 04:22N 44°07' W 124°46'3 9.6
2017-Oct-07 04:00N 44°04' W 124°49'5 9.9
2017-Oct-07 03:30N 44°01' W 124°53'4 8.3
2017-Oct-07 03:00N 43°57' W 124°56'1 2.0
2017-Oct-07 02:30N 43°56' W 124°57'  

Dump ship's entire track history